Skip Navigation LinksHome page > Tools > METAR decoder Skip Navigation Links

METAR decoder

Settings

METAR

Chicago O'Hare Intl, Chicago

For information only: do not use for flight planning or navigation.
Latest weather
Observation time Monday, May 22, 2017 9:51 AM CDT
Local time Monday, May 22, 2017 10:40 AM CDT
Flight conditions Visual Meteorological Conditions
Winds
Wind direction West-Southwest (250°)
Wind speed 12 mph
Visibility 10 mi.
Sky condition
Ceiling unlimited
Sky clear
Temperature 60°F
Dewpoint 45°F
Altimeter 30.02 in.Hg
Pressure change last 3 hours0.01 in.Hg
Pressure falling more quickly
Derived measurements
Relative humidity 57%
Density altitude 773 ft.
Sea-level pressure 30.02 in.Hg
Remarks
Automated weather observing station with precipitation discriminator.
METAR KORD 221451Z 25010KT 10SM CLR 16/07 A3002 RMK AO2 SLP165 T01560072 58003

InnerDrive.Weather 4.0.6144.1 Release CLR 4.0.30319.36366
Copyright ©2015 Inner Drive Technology. All rights reserved. Portions Copyright ©1986-2015 David Braverman.

Find weather

Site navigation


Skip Navigation Links

Place info

Page info

PayPal - The safer, easier way to pay online!

Return home.

Copyright ©2017 Inner Drive Technology. Purveyors of fine, hand-crafted computer software. Page printed 2017-05-22T15:40:13 UTC.